sensor_id;sensor_type;location;lat;lon;timestamp;P1;durP1;ratioP1;P2;durP2;ratioP2
75772;SDS011;64381;0.000;0.000;2022-10-16T00:00:31;6.60;;;2.20;;
75772;SDS011;64381;0.000;0.000;2022-10-16T00:02:57;3.50;;;1.90;;
75772;SDS011;64381;0.000;0.000;2022-10-16T00:05:23;4.93;;;2.00;;
75772;SDS011;64381;0.000;0.000;2022-10-16T00:07:48;4.53;;;2.13;;
75772;SDS011;64381;0.000;0.000;2022-10-16T00:10:13;6.00;;;2.20;;
75772;SDS011;64381;0.000;0.000;2022-10-16T00:12:39;5.03;;;2.13;;
75772;SDS011;64381;0.000;0.000;2022-10-16T00:15:04;4.83;;;2.20;;
75772;SDS011;64381;0.000;0.000;2022-10-16T00:17:30;4.77;;;2.17;;
75772;SDS011;64381;0.000;0.000;2022-10-16T00:19:55;5.37;;;1.90;;
75772;SDS011;64381;0.000;0.000;2022-10-16T00:22:20;3.70;;;1.80;;
75772;SDS011;64381;0.000;0.000;2022-10-16T00:24:45;4.87;;;2.13;;
75772;SDS011;64381;0.000;0.000;2022-10-16T00:27:11;4.57;;;2.00;;
75772;SDS011;64381;0.000;0.000;2022-10-16T00:29:36;4.53;;;2.20;;
75772;SDS011;64381;0.000;0.000;2022-10-16T00:32:01;4.83;;;2.17;;
75772;SDS011;64381;0.000;0.000;2022-10-16T00:34:26;3.80;;;1.95;;
75772;SDS011;64381;0.000;0.000;2022-10-16T00:36:52;4.57;;;2.08;;
75772;SDS011;64381;0.000;0.000;2022-10-16T00:39:17;4.13;;;1.97;;
75772;SDS011;64381;0.000;0.000;2022-10-16T00:41:42;4.67;;;2.43;;
75772;SDS011;64381;0.000;0.000;2022-10-16T00:47:11;4.50;;;1.93;;
75772;SDS011;64381;0.000;0.000;2022-10-16T00:49:40;4.35;;;1.98;;
75772;SDS011;64381;0.000;0.000;2022-10-16T00:52:06;4.55;;;2.10;;
75772;SDS011;64381;0.000;0.000;2022-10-16T00:54:31;4.73;;;2.10;;
75772;SDS011;64381;0.000;0.000;2022-10-16T00:56:59;3.80;;;1.90;;
75772;SDS011;64381;0.000;0.000;2022-10-16T00:59:27;4.55;;;1.90;;
75772;SDS011;64381;0.000;0.000;2022-10-16T01:01:55;3.85;;;1.95;;
75772;SDS011;64381;0.000;0.000;2022-10-16T01:04:21;3.80;;;2.10;;
75772;SDS011;64381;0.000;0.000;2022-10-16T01:12:39;4.90;;;1.90;;
75772;SDS011;64381;0.000;0.000;2022-10-16T01:25:39;4.28;;;2.20;;
75772;SDS011;64381;0.000;0.000;2022-10-16T01:28:13;5.20;;;2.20;;
75772;SDS011;64381;0.000;0.000;2022-10-16T01:30:42;4.82;;;2.03;;
75772;SDS011;64381;0.000;0.000;2022-10-16T01:33:11;4.00;;;2.05;;
75772;SDS011;64381;0.000;0.000;2022-10-16T01:35:42;4.25;;;2.10;;
75772;SDS011;64381;0.000;0.000;2022-10-16T01:40:46;4.70;;;2.00;;
75772;SDS011;64381;0.000;0.000;2022-10-16T01:43:17;4.13;;;1.92;;
75772;SDS011;64381;0.000;0.000;2022-10-16T01:45:45;3.33;;;1.77;;
75772;SDS011;64381;0.000;0.000;2022-10-16T01:48:15;4.32;;;2.10;;
75772;SDS011;64381;0.000;0.000;2022-10-16T01:50:43;4.50;;;1.90;;
75772;SDS011;64381;0.000;0.000;2022-10-16T01:53:13;3.85;;;1.83;;
75772;SDS011;64381;0.000;0.000;2022-10-16T01:55:41;3.80;;;1.90;;
75772;SDS011;64381;0.000;0.000;2022-10-16T01:58:09;3.58;;;2.00;;
75772;SDS011;64381;0.000;0.000;2022-10-16T02:00:37;3.53;;;1.80;;
75772;SDS011;64381;0.000;0.000;2022-10-16T02:03:04;3.65;;;1.80;;
75772;SDS011;64381;0.000;0.000;2022-10-16T02:05:32;4.55;;;2.10;;
75772;SDS011;64381;0.000;0.000;2022-10-16T02:08:05;3.67;;;1.83;;
75772;SDS011;64381;0.000;0.000;2022-10-16T02:10:31;3.77;;;1.80;;
75772;SDS011;64381;0.000;0.000;2022-10-16T02:12:58;4.28;;;2.10;;
75772;SDS011;64381;0.000;0.000;2022-10-16T02:15:28;4.63;;;2.00;;
75772;SDS011;64381;0.000;0.000;2022-10-16T02:17:53;4.13;;;1.80;;
75772;SDS011;64381;0.000;0.000;2022-10-16T02:20:20;3.83;;;2.00;;
75772;SDS011;64381;0.000;0.000;2022-10-16T02:22:49;3.90;;;2.00;;
75772;SDS011;64381;0.000;0.000;2022-10-16T02:27:52;3.72;;;1.85;;
75772;SDS011;64381;0.000;0.000;2022-10-16T02:32:46;4.07;;;1.80;;
75772;SDS011;64381;0.000;0.000;2022-10-16T02:35:13;4.93;;;2.05;;
75772;SDS011;64381;0.000;0.000;2022-10-16T02:37:41;3.80;;;1.75;;
75772;SDS011;64381;0.000;0.000;2022-10-16T02:40:07;3.50;;;1.80;;
75772;SDS011;64381;0.000;0.000;2022-10-16T02:42:33;3.42;;;1.75;;
75772;SDS011;64381;0.000;0.000;2022-10-16T02:45:00;5.37;;;1.90;;
75772;SDS011;64381;0.000;0.000;2022-10-16T02:47:25;4.33;;;1.80;;
75772;SDS011;64381;0.000;0.000;2022-10-16T02:49:51;3.73;;;1.97;;
75772;SDS011;64381;0.000;0.000;2022-10-16T02:52:16;3.90;;;1.95;;
75772;SDS011;64381;0.000;0.000;2022-10-16T02:54:41;3.78;;;1.70;;
75772;SDS011;64381;0.000;0.000;2022-10-16T02:57:07;3.65;;;2.00;;
75772;SDS011;64381;0.000;0.000;2022-10-16T02:59:32;3.78;;;1.80;;
75772;SDS011;64381;0.000;0.000;2022-10-16T03:01:57;3.97;;;2.00;;
75772;SDS011;64381;0.000;0.000;2022-10-16T03:04:22;3.97;;;1.93;;
75772;SDS011;64381;0.000;0.000;2022-10-16T03:06:48;4.00;;;2.00;;
75772;SDS011;64381;0.000;0.000;2022-10-16T03:09:13;3.73;;;1.70;;
75772;SDS011;64381;0.000;0.000;2022-10-16T03:11:39;4.60;;;2.00;;
75772;SDS011;64381;0.000;0.000;2022-10-16T03:14:04;3.93;;;1.80;;
75772;SDS011;64381;0.000;0.000;2022-10-16T03:16:29;3.85;;;1.73;;
75772;SDS011;64381;0.000;0.000;2022-10-16T03:18:54;3.38;;;1.70;;
75772;SDS011;64381;0.000;0.000;2022-10-16T03:21:20;3.75;;;1.90;;
75772;SDS011;64381;0.000;0.000;2022-10-16T03:23:45;3.30;;;1.70;;
75772;SDS011;64381;0.000;0.000;2022-10-16T03:26:10;3.97;;;1.80;;
75772;SDS011;64381;0.000;0.000;2022-10-16T03:28:35;3.30;;;1.70;;
75772;SDS011;64381;0.000;0.000;2022-10-16T03:31:01;4.13;;;1.90;;
75772;SDS011;64381;0.000;0.000;2022-10-16T03:33:26;3.50;;;1.90;;
75772;SDS011;64381;0.000;0.000;2022-10-16T03:35:52;3.67;;;1.90;;
75772;SDS011;64381;0.000;0.000;2022-10-16T03:38:18;3.85;;;2.00;;
75772;SDS011;64381;0.000;0.000;2022-10-16T03:40:44;3.65;;;1.83;;
75772;SDS011;64381;0.000;0.000;2022-10-16T03:43:09;3.47;;;1.80;;
75772;SDS011;64381;0.000;0.000;2022-10-16T03:45:34;3.27;;;1.70;;
75772;SDS011;64381;0.000;0.000;2022-10-16T03:47:59;3.53;;;1.70;;
75772;SDS011;64381;0.000;0.000;2022-10-16T03:50:25;4.40;;;1.80;;
75772;SDS011;64381;0.000;0.000;2022-10-16T03:52:50;4.27;;;2.00;;
75772;SDS011;64381;0.000;0.000;2022-10-16T03:55:15;3.63;;;1.80;;
75772;SDS011;64381;0.000;0.000;2022-10-16T03:57:40;3.37;;;1.80;;
75772;SDS011;64381;0.000;0.000;2022-10-16T04:00:06;4.23;;;1.80;;
75772;SDS011;64381;0.000;0.000;2022-10-16T04:02:31;3.45;;;1.80;;
75772;SDS011;64381;0.000;0.000;2022-10-16T04:04:56;3.67;;;1.60;;
75772;SDS011;64381;0.000;0.000;2022-10-16T04:07:22;3.60;;;1.90;;
75772;SDS011;64381;0.000;0.000;2022-10-16T04:09:47;4.00;;;1.98;;
75772;SDS011;64381;0.000;0.000;2022-10-16T04:12:12;3.50;;;1.50;;
75772;SDS011;64381;0.000;0.000;2022-10-16T04:14:37;4.00;;;1.60;;
75772;SDS011;64381;0.000;0.000;2022-10-16T04:17:03;3.37;;;1.70;;
75772;SDS011;64381;0.000;0.000;2022-10-16T04:19:28;3.23;;;1.67;;
75772;SDS011;64381;0.000;0.000;2022-10-16T04:21:53;4.13;;;1.70;;
75772;SDS011;64381;0.000;0.000;2022-10-16T04:24:18;3.77;;;1.50;;
75772;SDS011;64381;0.000;0.000;2022-10-16T04:26:43;4.10;;;1.80;;
75772;SDS011;64381;0.000;0.000;2022-10-16T04:29:09;3.93;;;1.70;;
75772;SDS011;64381;0.000;0.000;2022-10-16T04:31:34;3.37;;;1.57;;
75772;SDS011;64381;0.000;0.000;2022-10-16T04:33:59;3.40;;;1.77;;
75772;SDS011;64381;0.000;0.000;2022-10-16T04:36:24;3.67;;;1.70;;
75772;SDS011;64381;0.000;0.000;2022-10-16T04:38:50;2.83;;;1.53;;
75772;SDS011;64381;0.000;0.000;2022-10-16T04:41:15;3.43;;;1.77;;
75772;SDS011;64381;0.000;0.000;2022-10-16T04:43:40;3.87;;;1.47;;
75772;SDS011;64381;0.000;0.000;2022-10-16T04:46:05;3.53;;;1.50;;
75772;SDS011;64381;0.000;0.000;2022-10-16T04:48:31;3.57;;;1.77;;
75772;SDS011;64381;0.000;0.000;2022-10-16T04:50:56;9.30;;;2.17;;
75772;SDS011;64381;0.000;0.000;2022-10-16T04:53:22;3.13;;;1.70;;
75772;SDS011;64381;0.000;0.000;2022-10-16T04:55:47;3.30;;;1.60;;
75772;SDS011;64381;0.000;0.000;2022-10-16T04:58:12;3.73;;;1.57;;
75772;SDS011;64381;0.000;0.000;2022-10-16T05:00:37;3.10;;;1.73;;
75772;SDS011;64381;0.000;0.000;2022-10-16T05:03:03;3.40;;;1.63;;
75772;SDS011;64381;0.000;0.000;2022-10-16T05:05:28;3.33;;;1.70;;
75772;SDS011;64381;0.000;0.000;2022-10-16T05:07:53;3.43;;;1.50;;
75772;SDS011;64381;0.000;0.000;2022-10-16T05:10:19;3.13;;;1.70;;
75772;SDS011;64381;0.000;0.000;2022-10-16T05:12:44;3.80;;;1.85;;
75772;SDS011;64381;0.000;0.000;2022-10-16T05:15:10;3.40;;;1.80;;
75772;SDS011;64381;0.000;0.000;2022-10-16T05:17:35;3.37;;;1.70;;
75772;SDS011;64381;0.000;0.000;2022-10-16T05:20:01;3.00;;;1.53;;
75772;SDS011;64381;0.000;0.000;2022-10-16T05:22:26;3.25;;;1.50;;
75772;SDS011;64381;0.000;0.000;2022-10-16T05:24:51;3.30;;;1.50;;
75772;SDS011;64381;0.000;0.000;2022-10-16T05:27:17;3.50;;;1.60;;
75772;SDS011;64381;0.000;0.000;2022-10-16T05:29:42;3.27;;;1.60;;
75772;SDS011;64381;0.000;0.000;2022-10-16T05:32:07;3.13;;;1.60;;
75772;SDS011;64381;0.000;0.000;2022-10-16T05:34:33;3.30;;;1.57;;
75772;SDS011;64381;0.000;0.000;2022-10-16T05:36:58;3.20;;;1.50;;
75772;SDS011;64381;0.000;0.000;2022-10-16T05:39:23;3.30;;;1.60;;
75772;SDS011;64381;0.000;0.000;2022-10-16T05:41:49;3.57;;;1.57;;
75772;SDS011;64381;0.000;0.000;2022-10-16T05:44:14;3.45;;;1.60;;
75772;SDS011;64381;0.000;0.000;2022-10-16T05:46:40;3.10;;;1.80;;
75772;SDS011;64381;0.000;0.000;2022-10-16T05:49:05;3.50;;;1.60;;
75772;SDS011;64381;0.000;0.000;2022-10-16T05:51:30;3.23;;;1.60;;
75772;SDS011;64381;0.000;0.000;2022-10-16T05:53:55;3.03;;;1.40;;
75772;SDS011;64381;0.000;0.000;2022-10-16T05:56:20;2.83;;;1.37;;
75772;SDS011;64381;0.000;0.000;2022-10-16T05:58:46;3.60;;;1.63;;
75772;SDS011;64381;0.000;0.000;2022-10-16T06:01:12;4.13;;;1.70;;
75772;SDS011;64381;0.000;0.000;2022-10-16T06:03:39;3.00;;;1.50;;
75772;SDS011;64381;0.000;0.000;2022-10-16T06:06:08;3.20;;;1.60;;
75772;SDS011;64381;0.000;0.000;2022-10-16T06:08:33;3.63;;;1.60;;
75772;SDS011;64381;0.000;0.000;2022-10-16T06:11:03;3.50;;;1.60;;
75772;SDS011;64381;0.000;0.000;2022-10-16T06:13:29;3.83;;;1.40;;
75772;SDS011;64381;0.000;0.000;2022-10-16T06:15:56;3.60;;;1.60;;
75772;SDS011;64381;0.000;0.000;2022-10-16T06:18:22;3.95;;;1.60;;
75772;SDS011;64381;0.000;0.000;2022-10-16T06:20:47;2.83;;;1.53;;
75772;SDS011;64381;0.000;0.000;2022-10-16T06:23:13;3.40;;;1.50;;
75772;SDS011;64381;0.000;0.000;2022-10-16T06:25:38;3.27;;;1.60;;
75772;SDS011;64381;0.000;0.000;2022-10-16T06:28:03;3.57;;;1.50;;
75772;SDS011;64381;0.000;0.000;2022-10-16T06:30:28;3.20;;;1.50;;
75772;SDS011;64381;0.000;0.000;2022-10-16T06:32:53;3.67;;;1.60;;
75772;SDS011;64381;0.000;0.000;2022-10-16T06:35:19;3.20;;;1.40;;
75772;SDS011;64381;0.000;0.000;2022-10-16T06:37:44;3.57;;;1.50;;
75772;SDS011;64381;0.000;0.000;2022-10-16T06:40:09;3.57;;;1.70;;
75772;SDS011;64381;0.000;0.000;2022-10-16T06:42:34;2.90;;;1.50;;
75772;SDS011;64381;0.000;0.000;2022-10-16T06:45:00;3.10;;;1.50;;
75772;SDS011;64381;0.000;0.000;2022-10-16T06:47:25;3.57;;;1.60;;
75772;SDS011;64381;0.000;0.000;2022-10-16T06:49:50;3.53;;;1.63;;
75772;SDS011;64381;0.000;0.000;2022-10-16T06:52:15;3.43;;;1.63;;
75772;SDS011;64381;0.000;0.000;2022-10-16T06:54:41;3.13;;;1.60;;
75772;SDS011;64381;0.000;0.000;2022-10-16T06:57:06;3.10;;;1.57;;
75772;SDS011;64381;0.000;0.000;2022-10-16T06:59:31;3.70;;;1.70;;
75772;SDS011;64381;0.000;0.000;2022-10-16T07:01:56;3.20;;;1.40;;
75772;SDS011;64381;0.000;0.000;2022-10-16T07:04:21;3.43;;;1.63;;
75772;SDS011;64381;0.000;0.000;2022-10-16T07:06:47;4.10;;;1.60;;
75772;SDS011;64381;0.000;0.000;2022-10-16T07:09:12;3.17;;;1.50;;
75772;SDS011;64381;0.000;0.000;2022-10-16T07:11:38;3.23;;;1.50;;
75772;SDS011;64381;0.000;0.000;2022-10-16T07:14:04;3.58;;;1.50;;
75772;SDS011;64381;0.000;0.000;2022-10-16T07:16:34;3.20;;;1.48;;
75772;SDS011;64381;0.000;0.000;2022-10-16T07:19:00;3.30;;;1.30;;
75772;SDS011;64381;0.000;0.000;2022-10-16T07:21:27;3.13;;;1.40;;
75772;SDS011;64381;0.000;0.000;2022-10-16T07:23:56;3.13;;;1.40;;
75772;SDS011;64381;0.000;0.000;2022-10-16T07:26:23;3.13;;;1.50;;
75772;SDS011;64381;0.000;0.000;2022-10-16T07:28:49;3.03;;;1.35;;
75772;SDS011;64381;0.000;0.000;2022-10-16T07:31:15;3.83;;;1.67;;
75772;SDS011;64381;0.000;0.000;2022-10-16T07:33:42;3.10;;;1.60;;
75772;SDS011;64381;0.000;0.000;2022-10-16T07:36:08;3.58;;;1.70;;
75772;SDS011;64381;0.000;0.000;2022-10-16T07:38:34;3.10;;;1.60;;
75772;SDS011;64381;0.000;0.000;2022-10-16T07:41:03;3.73;;;1.63;;
75772;SDS011;64381;0.000;0.000;2022-10-16T07:43:30;3.50;;;1.50;;
75772;SDS011;64381;0.000;0.000;2022-10-16T07:45:55;2.83;;;1.40;;
75772;SDS011;64381;0.000;0.000;2022-10-16T07:48:21;3.30;;;1.50;;
75772;SDS011;64381;0.000;0.000;2022-10-16T07:50:47;3.10;;;1.60;;
75772;SDS011;64381;0.000;0.000;2022-10-16T07:53:13;2.90;;;1.47;;
75772;SDS011;64381;0.000;0.000;2022-10-16T07:55:38;3.38;;;1.50;;
75772;SDS011;64381;0.000;0.000;2022-10-16T07:58:04;3.17;;;1.60;;
75772;SDS011;64381;0.000;0.000;2022-10-16T08:00:30;2.83;;;1.40;;
75772;SDS011;64381;0.000;0.000;2022-10-16T08:02:56;3.17;;;1.50;;
75772;SDS011;64381;0.000;0.000;2022-10-16T08:05:24;3.25;;;1.52;;
75772;SDS011;64381;0.000;0.000;2022-10-16T08:07:49;3.37;;;1.70;;
75772;SDS011;64381;0.000;0.000;2022-10-16T08:10:18;3.40;;;1.90;;
75772;SDS011;64381;0.000;0.000;2022-10-16T08:12:44;2.90;;;1.50;;
75772;SDS011;64381;0.000;0.000;2022-10-16T08:15:09;3.07;;;1.60;;
75772;SDS011;64381;0.000;0.000;2022-10-16T08:17:35;3.50;;;1.60;;
75772;SDS011;64381;0.000;0.000;2022-10-16T08:20:00;4.00;;;1.63;;
75772;SDS011;64381;0.000;0.000;2022-10-16T08:22:26;5.63;;;1.60;;
75772;SDS011;64381;0.000;0.000;2022-10-16T08:24:51;3.17;;;1.30;;
75772;SDS011;64381;0.000;0.000;2022-10-16T08:27:16;3.77;;;1.60;;
75772;SDS011;64381;0.000;0.000;2022-10-16T08:29:41;3.10;;;1.67;;
75772;SDS011;64381;0.000;0.000;2022-10-16T08:32:07;4.27;;;1.67;;
75772;SDS011;64381;0.000;0.000;2022-10-16T08:34:32;4.33;;;1.60;;
75772;SDS011;64381;0.000;0.000;2022-10-16T08:36:57;4.20;;;1.80;;
75772;SDS011;64381;0.000;0.000;2022-10-16T08:39:22;3.07;;;1.50;;
75772;SDS011;64381;0.000;0.000;2022-10-16T08:46:53;4.47;;;1.50;;
75772;SDS011;64381;0.000;0.000;2022-10-16T08:49:25;3.37;;;1.57;;
75772;SDS011;64381;0.000;0.000;2022-10-16T08:51:52;3.60;;;1.40;;
75772;SDS011;64381;0.000;0.000;2022-10-16T08:57:00;4.22;;;1.83;;
75772;SDS011;64381;0.000;0.000;2022-10-16T08:59:33;3.40;;;1.75;;
75772;SDS011;64381;0.000;0.000;2022-10-16T09:01:59;3.67;;;1.40;;
75772;SDS011;64381;0.000;0.000;2022-10-16T09:13:06;3.50;;;1.60;;
75772;SDS011;64381;0.000;0.000;2022-10-16T09:15:55;3.70;;;1.45;;
75772;SDS011;64381;0.000;0.000;2022-10-16T09:18:37;3.05;;;1.40;;
75772;SDS011;64381;0.000;0.000;2022-10-16T09:21:16;4.57;;;1.52;;
75772;SDS011;64381;0.000;0.000;2022-10-16T09:23:45;3.40;;;1.73;;
75772;SDS011;64381;0.000;0.000;2022-10-16T09:26:11;3.67;;;1.50;;
75772;SDS011;64381;0.000;0.000;2022-10-16T09:28:38;5.20;;;1.50;;
75772;SDS011;64381;0.000;0.000;2022-10-16T09:31:03;3.40;;;1.40;;
75772;SDS011;64381;0.000;0.000;2022-10-16T09:33:29;3.17;;;1.43;;
75772;SDS011;64381;0.000;0.000;2022-10-16T09:36:00;3.67;;;1.70;;
75772;SDS011;64381;0.000;0.000;2022-10-16T09:40:55;32.17;;;3.77;;
75772;SDS011;64381;0.000;0.000;2022-10-16T09:48:25;31.92;;;4.20;;
75772;SDS011;64381;0.000;0.000;2022-10-16T09:51:01;31.38;;;3.83;;
75772;SDS011;64381;0.000;0.000;2022-10-16T09:56:32;35.05;;;3.78;;
75772;SDS011;64381;0.000;0.000;2022-10-16T09:59:00;21.17;;;3.30;;
75772;SDS011;64381;0.000;0.000;2022-10-16T10:01:37;22.25;;;4.07;;
75772;SDS011;64381;0.000;0.000;2022-10-16T10:04:05;18.60;;;3.17;;
75772;SDS011;64381;0.000;0.000;2022-10-16T10:06:33;21.30;;;3.17;;
75772;SDS011;64381;0.000;0.000;2022-10-16T10:11:49;15.30;;;3.08;;
75772;SDS011;64381;0.000;0.000;2022-10-16T10:14:32;18.33;;;2.85;;
75772;SDS011;64381;0.000;0.000;2022-10-16T10:19:51;14.60;;;2.63;;
75772;SDS011;64381;0.000;0.000;2022-10-16T10:22:25;19.92;;;2.70;;
75772;SDS011;64381;0.000;0.000;2022-10-16T10:27:33;15.50;;;2.65;;
75772;SDS011;64381;0.000;0.000;2022-10-16T10:30:25;12.23;;;2.53;;
75772;SDS011;64381;0.000;0.000;2022-10-16T10:38:54;11.15;;;3.17;;
75772;SDS011;64381;0.000;0.000;2022-10-16T10:47:31;15.03;;;3.50;;
75772;SDS011;64381;0.000;0.000;2022-10-16T10:55:37;10.05;;;3.97;;
75772;SDS011;64381;0.000;0.000;2022-10-16T11:06:18;12.13;;;4.60;;
75772;SDS011;64381;0.000;0.000;2022-10-16T11:08:48;13.07;;;4.50;;
75772;SDS011;64381;0.000;0.000;2022-10-16T11:11:19;11.75;;;4.63;;
75772;SDS011;64381;0.000;0.000;2022-10-16T11:13:58;12.30;;;4.03;;
75772;SDS011;64381;0.000;0.000;2022-10-16T11:16:28;12.63;;;4.68;;
75772;SDS011;64381;0.000;0.000;2022-10-16T11:19:18;10.25;;;4.05;;
75772;SDS011;64381;0.000;0.000;2022-10-16T11:22:24;7.80;;;3.17;;
75772;SDS011;64381;0.000;0.000;2022-10-16T11:25:20;5.00;;;2.35;;
75772;SDS011;64381;0.000;0.000;2022-10-16T11:30:50;12.20;;;1.98;;
75772;SDS011;64381;0.000;0.000;2022-10-16T11:33:27;18.60;;;2.38;;
75772;SDS011;64381;0.000;0.000;2022-10-16T11:36:00;7.55;;;1.70;;
75772;SDS011;64381;0.000;0.000;2022-10-16T11:41:17;4.87;;;2.03;;
75772;SDS011;64381;0.000;0.000;2022-10-16T11:43:58;3.85;;;1.20;;
75772;SDS011;64381;0.000;0.000;2022-10-16T11:46:25;4.20;;;1.25;;
75772;SDS011;64381;0.000;0.000;2022-10-16T11:48:55;3.80;;;1.30;;
75772;SDS011;64381;0.000;0.000;2022-10-16T11:51:24;2.83;;;1.20;;
75772;SDS011;64381;0.000;0.000;2022-10-16T11:57:01;2.83;;;1.27;;
75772;SDS011;64381;0.000;0.000;2022-10-16T11:59:37;2.75;;;1.23;;
75772;SDS011;64381;0.000;0.000;2022-10-16T12:08:10;3.03;;;1.00;;
75772;SDS011;64381;0.000;0.000;2022-10-16T12:10:38;2.60;;;1.10;;
75772;SDS011;64381;0.000;0.000;2022-10-16T12:13:26;2.95;;;1.30;;
75772;SDS011;64381;0.000;0.000;2022-10-16T12:19:02;2.63;;;1.15;;
75772;SDS011;64381;0.000;0.000;2022-10-16T12:21:38;2.93;;;1.30;;
75772;SDS011;64381;0.000;0.000;2022-10-16T12:24:03;3.05;;;1.20;;
75772;SDS011;64381;0.000;0.000;2022-10-16T12:26:30;3.37;;;1.20;;
75772;SDS011;64381;0.000;0.000;2022-10-16T12:29:10;3.03;;;1.40;;
75772;SDS011;64381;0.000;0.000;2022-10-16T12:31:37;3.00;;;1.30;;
75772;SDS011;64381;0.000;0.000;2022-10-16T12:34:14;3.25;;;1.40;;
75772;SDS011;64381;0.000;0.000;2022-10-16T12:36:47;3.50;;;1.50;;
75772;SDS011;64381;0.000;0.000;2022-10-16T12:39:23;3.70;;;1.30;;
75772;SDS011;64381;0.000;0.000;2022-10-16T12:42:35;3.35;;;1.50;;
75772;SDS011;64381;0.000;0.000;2022-10-16T12:44:44;3.95;;;1.55;;
75772;SDS011;64381;0.000;0.000;2022-10-16T12:47:18;3.17;;;1.37;;
75772;SDS011;64381;0.000;0.000;2022-10-16T12:49:50;3.33;;;1.40;;
75772;SDS011;64381;0.000;0.000;2022-10-16T12:55:15;3.47;;;1.33;;
75772;SDS011;64381;0.000;0.000;2022-10-16T13:06:06;27.33;;;3.90;;
75772;SDS011;64381;0.000;0.000;2022-10-16T13:11:27;27.80;;;3.40;;
75772;SDS011;64381;0.000;0.000;2022-10-16T13:24:48;15.07;;;2.37;;
75772;SDS011;64381;0.000;0.000;2022-10-16T13:30:51;15.10;;;2.40;;
75772;SDS011;64381;0.000;0.000;2022-10-16T13:33:03;15.88;;;2.28;;
75772;SDS011;64381;0.000;0.000;2022-10-16T13:35:32;22.13;;;2.50;;
75772;SDS011;64381;0.000;0.000;2022-10-16T13:40:36;24.75;;;2.60;;
75772;SDS011;64381;0.000;0.000;2022-10-16T13:43:01;16.03;;;2.47;;
75772;SDS011;64381;0.000;0.000;2022-10-16T13:45:27;15.40;;;3.00;;
75772;SDS011;64381;0.000;0.000;2022-10-16T13:48:05;14.55;;;2.33;;
75772;SDS011;64381;0.000;0.000;2022-10-16T13:50:34;17.60;;;2.17;;
75772;SDS011;64381;0.000;0.000;2022-10-16T13:53:14;13.65;;;2.10;;
75772;SDS011;64381;0.000;0.000;2022-10-16T13:55:39;9.32;;;2.50;;
75772;SDS011;64381;0.000;0.000;2022-10-16T13:58:08;10.40;;;1.98;;
75772;SDS011;64381;0.000;0.000;2022-10-16T14:00:37;11.10;;;2.10;;
75772;SDS011;64381;0.000;0.000;2022-10-16T14:03:04;10.77;;;2.15;;
75772;SDS011;64381;0.000;0.000;2022-10-16T14:05:32;10.50;;;2.60;;
75772;SDS011;64381;0.000;0.000;2022-10-16T14:07:58;11.30;;;2.80;;
75772;SDS011;64381;0.000;0.000;2022-10-16T14:10:25;11.15;;;2.53;;
75772;SDS011;64381;0.000;0.000;2022-10-16T14:12:56;11.50;;;2.73;;
75772;SDS011;64381;0.000;0.000;2022-10-16T14:15:24;11.93;;;3.00;;
75772;SDS011;64381;0.000;0.000;2022-10-16T14:17:50;10.27;;;3.50;;
75772;SDS011;64381;0.000;0.000;2022-10-16T14:20:17;12.93;;;2.95;;
75772;SDS011;64381;0.000;0.000;2022-10-16T14:22:43;9.68;;;3.10;;
75772;SDS011;64381;0.000;0.000;2022-10-16T14:27:43;11.02;;;3.83;;
75772;SDS011;64381;0.000;0.000;2022-10-16T14:30:16;13.60;;;3.90;;
75772;SDS011;64381;0.000;0.000;2022-10-16T14:32:59;11.65;;;3.80;;
75772;SDS011;64381;0.000;0.000;2022-10-16T14:35:32;11.13;;;3.92;;
75772;SDS011;64381;0.000;0.000;2022-10-16T14:38:02;12.85;;;3.05;;
75772;SDS011;64381;0.000;0.000;2022-10-16T14:40:31;10.30;;;3.72;;
75772;SDS011;64381;0.000;0.000;2022-10-16T14:42:57;11.95;;;4.03;;
75772;SDS011;64381;0.000;0.000;2022-10-16T14:45:24;11.13;;;3.28;;
75772;SDS011;64381;0.000;0.000;2022-10-16T14:47:54;9.68;;;2.88;;
75772;SDS011;64381;0.000;0.000;2022-10-16T14:50:22;9.00;;;2.83;;
75772;SDS011;64381;0.000;0.000;2022-10-16T14:52:47;11.57;;;2.88;;
75772;SDS011;64381;0.000;0.000;2022-10-16T14:55:12;11.68;;;2.65;;
75772;SDS011;64381;0.000;0.000;2022-10-16T14:57:38;9.30;;;2.53;;
75772;SDS011;64381;0.000;0.000;2022-10-16T15:00:15;8.20;;;2.53;;
75772;SDS011;64381;0.000;0.000;2022-10-16T15:02:42;6.43;;;2.22;;
75772;SDS011;64381;0.000;0.000;2022-10-16T15:05:12;11.15;;;2.58;;
75772;SDS011;64381;0.000;0.000;2022-10-16T15:07:43;8.90;;;2.60;;
75772;SDS011;64381;0.000;0.000;2022-10-16T15:10:09;12.93;;;2.70;;
75772;SDS011;64381;0.000;0.000;2022-10-16T15:12:35;11.67;;;2.50;;
75772;SDS011;64381;0.000;0.000;2022-10-16T15:15:00;6.00;;;2.07;;
75772;SDS011;64381;0.000;0.000;2022-10-16T15:17:25;7.53;;;2.10;;
75772;SDS011;64381;0.000;0.000;2022-10-16T15:19:51;8.73;;;2.30;;
75772;SDS011;64381;0.000;0.000;2022-10-16T15:22:16;5.68;;;2.17;;
75772;SDS011;64381;0.000;0.000;2022-10-16T15:24:41;5.10;;;2.13;;
75772;SDS011;64381;0.000;0.000;2022-10-16T15:27:06;9.50;;;2.40;;
75772;SDS011;64381;0.000;0.000;2022-10-16T15:29:31;7.77;;;2.07;;
75772;SDS011;64381;0.000;0.000;2022-10-16T15:31:57;8.47;;;2.00;;
75772;SDS011;64381;0.000;0.000;2022-10-16T15:34:22;6.83;;;2.10;;
75772;SDS011;64381;0.000;0.000;2022-10-16T15:36:47;6.67;;;2.10;;
75772;SDS011;64381;0.000;0.000;2022-10-16T15:39:13;8.87;;;2.00;;
75772;SDS011;64381;0.000;0.000;2022-10-16T15:41:40;7.90;;;1.90;;
75772;SDS011;64381;0.000;0.000;2022-10-16T15:44:06;7.28;;;2.05;;
75772;SDS011;64381;0.000;0.000;2022-10-16T15:46:31;6.67;;;2.13;;
75772;SDS011;64381;0.000;0.000;2022-10-16T15:48:57;4.53;;;1.70;;
75772;SDS011;64381;0.000;0.000;2022-10-16T15:51:23;5.50;;;1.55;;
75772;SDS011;64381;0.000;0.000;2022-10-16T15:53:49;7.78;;;1.67;;
75772;SDS011;64381;0.000;0.000;2022-10-16T15:56:14;4.67;;;2.00;;
75772;SDS011;64381;0.000;0.000;2022-10-16T15:58:40;5.47;;;1.70;;
75772;SDS011;64381;0.000;0.000;2022-10-16T16:01:05;4.73;;;1.80;;
75772;SDS011;64381;0.000;0.000;2022-10-16T16:03:31;7.40;;;1.93;;
75772;SDS011;64381;0.000;0.000;2022-10-16T16:05:57;7.97;;;2.10;;
75772;SDS011;64381;0.000;0.000;2022-10-16T16:08:23;6.68;;;2.10;;
75772;SDS011;64381;0.000;0.000;2022-10-16T16:10:58;6.43;;;2.00;;
75772;SDS011;64381;0.000;0.000;2022-10-16T16:13:24;6.40;;;1.95;;
75772;SDS011;64381;0.000;0.000;2022-10-16T16:15:50;6.10;;;2.47;;
75772;SDS011;64381;0.000;0.000;2022-10-16T16:18:15;8.13;;;1.77;;
75772;SDS011;64381;0.000;0.000;2022-10-16T16:20:40;6.13;;;1.53;;
75772;SDS011;64381;0.000;0.000;2022-10-16T16:23:05;5.33;;;1.63;;
75772;SDS011;64381;0.000;0.000;2022-10-16T16:25:31;6.60;;;1.53;;
75772;SDS011;64381;0.000;0.000;2022-10-16T16:27:56;4.60;;;1.67;;
75772;SDS011;64381;0.000;0.000;2022-10-16T16:30:21;5.37;;;1.60;;
75772;SDS011;64381;0.000;0.000;2022-10-16T16:32:46;4.53;;;1.60;;
75772;SDS011;64381;0.000;0.000;2022-10-16T16:35:12;6.23;;;1.60;;
75772;SDS011;64381;0.000;0.000;2022-10-16T16:37:37;5.63;;;1.40;;
75772;SDS011;64381;0.000;0.000;2022-10-16T16:40:02;4.47;;;1.30;;
75772;SDS011;64381;0.000;0.000;2022-10-16T16:42:28;4.40;;;1.50;;
75772;SDS011;64381;0.000;0.000;2022-10-16T16:44:53;5.13;;;2.10;;
75772;SDS011;64381;0.000;0.000;2022-10-16T16:47:18;4.37;;;1.47;;
75772;SDS011;64381;0.000;0.000;2022-10-16T16:49:44;4.37;;;1.40;;
75772;SDS011;64381;0.000;0.000;2022-10-16T16:52:09;6.17;;;1.47;;
75772;SDS011;64381;0.000;0.000;2022-10-16T16:54:34;4.43;;;1.40;;
75772;SDS011;64381;0.000;0.000;2022-10-16T16:56:59;7.37;;;1.63;;
75772;SDS011;64381;0.000;0.000;2022-10-16T16:59:25;4.33;;;1.37;;
75772;SDS011;64381;0.000;0.000;2022-10-16T17:01:50;4.80;;;1.23;;
75772;SDS011;64381;0.000;0.000;2022-10-16T17:04:15;4.93;;;1.60;;
75772;SDS011;64381;0.000;0.000;2022-10-16T17:06:41;7.47;;;1.70;;
75772;SDS011;64381;0.000;0.000;2022-10-16T17:09:06;5.63;;;1.40;;
75772;SDS011;64381;0.000;0.000;2022-10-16T17:11:32;4.07;;;1.23;;
75772;SDS011;64381;0.000;0.000;2022-10-16T17:13:58;6.25;;;1.38;;
75772;SDS011;64381;0.000;0.000;2022-10-16T17:16:26;5.40;;;1.33;;
75772;SDS011;64381;0.000;0.000;2022-10-16T17:18:53;3.60;;;1.30;;
75772;SDS011;64381;0.000;0.000;2022-10-16T17:21:19;4.63;;;1.30;;